createdAt,value
2017-05-17T00:00:07.750Z,964.88
2017-05-17T00:01:08.338Z,964.87
2017-05-17T00:02:07.916Z,964.84
2017-05-17T00:03:07.478Z,964.82
2017-05-17T00:04:08.118Z,964.83
2017-05-17T00:05:07.733Z,964.80
2017-05-17T00:06:08.280Z,964.78
2017-05-17T00:07:07.739Z,964.80
2017-05-17T00:08:07.967Z,964.75
2017-05-17T00:09:07.576Z,964.77
2017-05-17T00:10:08.172Z,964.79
2017-05-17T00:11:08.006Z,964.77
2017-05-17T00:12:07.585Z,964.74
2017-05-17T00:13:08.210Z,964.74
2017-05-17T00:14:07.838Z,964.76
2017-05-17T00:15:07.510Z,964.72
2017-05-17T00:16:08.097Z,964.75
2017-05-17T00:17:07.966Z,964.71
2017-05-17T00:18:07.459Z,964.73
2017-05-17T00:19:08.056Z,964.70
2017-05-17T00:20:07.623Z,964.75
2017-05-17T00:21:08.212Z,964.72
2017-05-17T00:22:07.794Z,964.69
2017-05-17T00:23:07.377Z,964.73
2017-05-17T00:24:07.984Z,964.66
2017-05-17T00:25:07.719Z,964.66
2017-05-17T00:26:08.263Z,964.62
2017-05-17T00:27:07.960Z,964.62
2017-05-17T00:28:07.539Z,964.58
2017-05-17T00:29:08.396Z,964.56
2017-05-17T00:30:07.960Z,964.62
2017-05-17T00:31:07.603Z,964.59
2017-05-17T00:32:08.255Z,964.61
2017-05-17T00:33:07.846Z,964.56
2017-05-17T00:34:07.416Z,964.54
2017-05-17T00:35:08.015Z,964.54
2017-05-17T00:36:07.577Z,964.54
2017-05-17T00:37:08.146Z,964.52
2017-05-17T00:38:07.692Z,964.49
2017-05-17T00:39:08.306Z,964.49
2017-05-17T00:40:07.878Z,964.53
2017-05-17T00:41:07.654Z,964.48
2017-05-17T00:42:08.289Z,964.51
2017-05-17T00:43:07.855Z,964.50
2017-05-17T00:44:07.543Z,964.46
2017-05-17T00:45:08.120Z,964.46
2017-05-17T00:46:07.578Z,964.47
2017-05-17T00:47:08.167Z,964.47
2017-05-17T00:48:07.727Z,964.49
2017-05-17T00:49:08.642Z,964.46
2017-05-17T00:50:08.261Z,964.49
2017-05-17T00:51:08.015Z,964.45
2017-05-17T00:52:07.618Z,964.44
2017-05-17T00:53:08.058Z,964.39
2017-05-17T00:54:07.649Z,964.41
2017-05-17T00:55:08.416Z,964.39
2017-05-17T00:56:08.043Z,964.40
2017-05-17T00:57:07.716Z,964.38
2017-05-17T00:58:08.281Z,964.38
2017-05-17T00:59:07.802Z,964.34
2017-05-17T01:00:07.358Z,964.41
2017-05-17T01:01:07.987Z,964.38
2017-05-17T01:02:07.440Z,964.32
2017-05-17T01:03:07.947Z,964.33
2017-05-17T01:04:07.483Z,964.26
2017-05-17T01:05:08.123Z,964.28
2017-05-17T01:06:08.056Z,964.25
2017-05-17T01:07:07.684Z,964.29
2017-05-17T01:08:08.139Z,964.26
2017-05-17T01:09:08.052Z,964.25
2017-05-17T01:10:07.965Z,964.29
2017-05-17T01:11:07.598Z,964.30
2017-05-17T01:12:08.098Z,964.25
2017-05-17T01:13:07.661Z,964.19
2017-05-17T01:14:08.321Z,964.19
2017-05-17T01:15:46.546Z,964.20
2017-05-17T01:16:08.204Z,964.18
2017-05-17T01:17:07.956Z,964.23
2017-05-17T01:18:07.491Z,964.18
2017-05-17T01:19:31.901Z,964.20
2017-05-17T01:20:07.493Z,964.19
2017-05-17T01:21:08.119Z,964.20
2017-05-17T01:22:07.785Z,964.17
2017-05-17T01:23:07.557Z,964.16
2017-05-17T01:24:08.175Z,964.13
2017-05-17T01:25:07.816Z,964.12
2017-05-17T01:26:07.504Z,964.13
2017-05-17T01:27:08.126Z,964.10
2017-05-17T01:28:07.704Z,964.10
2017-05-17T01:29:08.340Z,964.09
2017-05-17T01:30:08.154Z,964.08
2017-05-17T01:31:07.728Z,964.09
2017-05-17T01:32:08.468Z,964.07
2017-05-17T01:33:08.099Z,964.06
2017-05-17T01:34:07.731Z,964.07
2017-05-17T01:35:08.357Z,964.05
2017-05-17T01:36:07.933Z,964.02
2017-05-17T01:37:07.492Z,964.07
2017-05-17T01:38:08.101Z,964.01
2017-05-17T01:39:07.696Z,964.00
2017-05-17T01:40:08.302Z,963.99
2017-05-17T01:41:07.924Z,963.99
2017-05-17T01:42:07.513Z,963.97
2017-05-17T01:43:08.139Z,963.96
2017-05-17T01:44:07.693Z,963.97
2017-05-17T01:45:08.299Z,963.97
2017-05-17T01:46:07.773Z,963.93
2017-05-17T01:47:07.390Z,963.94
2017-05-17T01:48:08.423Z,963.93
2017-05-17T01:49:08.102Z,963.91
2017-05-17T01:50:07.642Z,963.92
2017-05-17T01:51:08.248Z,963.88
2017-05-17T01:52:07.805Z,963.87
2017-05-17T01:53:07.371Z,963.90
2017-05-17T01:54:07.950Z,963.91
2017-05-17T01:55:07.595Z,963.87
2017-05-17T01:56:08.394Z,963.82
2017-05-17T01:57:07.987Z,963.81
2017-05-17T01:58:07.595Z,963.81
2017-05-17T01:59:08.212Z,963.82
2017-05-17T02:00:07.798Z,963.81
2017-05-17T02:01:07.520Z,963.83
2017-05-17T02:02:08.097Z,963.81
2017-05-17T02:03:07.636Z,963.77
2017-05-17T02:04:08.291Z,963.81
2017-05-17T02:05:07.909Z,963.76
2017-05-17T02:06:07.394Z,963.74
2017-05-17T02:07:07.819Z,963.76
2017-05-17T02:08:07.988Z,963.71
2017-05-17T02:09:07.532Z,963.73
2017-05-17T02:10:08.343Z,963.72
2017-05-17T02:11:07.878Z,963.71
2017-05-17T02:12:07.394Z,963.70
2017-05-17T02:13:07.917Z,963.74
2017-05-17T02:14:07.462Z,963.73
2017-05-17T02:15:08.056Z,963.72
2017-05-17T02:16:07.647Z,963.71
2017-05-17T02:17:08.424Z,963.72
2017-05-17T02:18:07.931Z,963.74
2017-05-17T02:19:07.418Z,963.69
2017-05-17T02:20:08.074Z,963.69
2017-05-17T02:21:07.540Z,963.70
2017-05-17T02:22:08.108Z,963.69
2017-05-17T02:23:07.844Z,963.65
2017-05-17T02:24:07.339Z,963.64
2017-05-17T02:25:07.916Z,963.65
2017-05-17T02:26:07.511Z,963.71
2017-05-17T02:27:08.196Z,963.70
2017-05-17T02:28:07.869Z,963.67
2017-05-17T02:29:07.435Z,963.66
2017-05-17T02:30:07.988Z,963.65
2017-05-17T02:31:07.597Z,963.65
2017-05-17T02:32:08.170Z,963.67
2017-05-17T02:33:07.708Z,963.62
2017-05-17T02:34:08.284Z,963.64
2017-05-17T02:35:07.844Z,963.67
2017-05-17T02:36:07.651Z,963.67
2017-05-17T02:37:08.525Z,963.65
2017-05-17T02:38:08.085Z,963.65
2017-05-17T02:39:07.665Z,963.62
2017-05-17T02:40:08.299Z,963.60
2017-05-17T02:41:07.941Z,963.58
2017-05-17T02:42:07.472Z,963.57
2017-05-17T02:43:08.428Z,963.56
2017-05-17T02:44:08.092Z,963.56
2017-05-17T02:45:07.784Z,963.55
2017-05-17T02:46:07.345Z,963.55
2017-05-17T02:47:07.966Z,963.52
2017-05-17T02:48:07.504Z,963.54
2017-05-17T02:49:08.081Z,963.55
2017-05-17T02:50:07.701Z,963.61
2017-05-17T02:51:08.286Z,963.55
2017-05-17T02:52:07.942Z,963.57
2017-05-17T02:53:07.522Z,963.55
2017-05-17T02:54:08.085Z,963.54
2017-05-17T02:55:08.384Z,963.54
2017-05-17T02:56:08.065Z,963.51
2017-05-17T02:57:07.829Z,963.51
2017-05-17T02:58:07.387Z,963.47
2017-05-17T02:59:08.034Z,963.52
2017-05-17T03:00:07.691Z,963.53
2017-05-17T03:01:08.238Z,963.48
2017-05-17T03:02:07.803Z,963.46
2017-05-17T03:03:07.645Z,963.46
2017-05-17T03:04:08.220Z,963.47
2017-05-17T03:05:07.855Z,963.46
2017-05-17T03:06:07.392Z,963.47
2017-05-17T03:07:07.955Z,963.46
2017-05-17T03:08:07.599Z,963.41
2017-05-17T03:09:08.198Z,963.41
2017-05-17T03:10:07.731Z,963.44
2017-05-17T03:11:08.314Z,963.42
2017-05-17T03:12:07.832Z,963.39
2017-05-17T03:13:07.429Z,963.41
2017-05-17T03:14:08.020Z,963.41
2017-05-17T03:15:07.487Z,963.41
2017-05-17T03:16:07.991Z,963.41
2017-05-17T03:17:07.807Z,963.39
2017-05-17T03:18:07.341Z,963.39
2017-05-17T03:19:07.939Z,963.36
2017-05-17T03:20:07.502Z,963.40
2017-05-17T03:21:08.173Z,963.38
2017-05-17T03:22:08.020Z,963.37
2017-05-17T03:23:07.682Z,963.34
2017-05-17T03:24:08.182Z,963.34
2017-05-17T03:25:07.832Z,963.33
2017-05-17T03:26:07.536Z,963.28
2017-05-17T03:27:08.157Z,963.28
2017-05-17T03:28:08.019Z,963.26
2017-05-17T03:29:07.924Z,963.28
2017-05-17T03:30:07.559Z,963.26
2017-05-17T03:31:08.317Z,963.27
2017-05-17T03:32:07.919Z,963.27
2017-05-17T03:33:07.527Z,963.25
2017-05-17T03:34:08.127Z,963.20
2017-05-17T03:35:07.859Z,963.22
2017-05-17T03:36:07.592Z,963.20
2017-05-17T03:37:08.420Z,963.23
2017-05-17T03:38:08.003Z,963.20
2017-05-17T03:39:07.519Z,963.15
2017-05-17T03:40:08.099Z,963.19
2017-05-17T03:41:07.604Z,963.17
2017-05-17T03:42:08.553Z,963.18
2017-05-17T03:43:08.183Z,963.16
2017-05-17T03:44:07.821Z,963.14
2017-05-17T03:45:07.368Z,963.17
2017-05-17T03:46:07.926Z,963.15
2017-05-17T03:47:07.422Z,963.13
2017-05-17T03:48:08.047Z,963.12
2017-05-17T03:49:07.936Z,963.14
2017-05-17T03:50:07.519Z,963.14
2017-05-17T03:51:08.056Z,963.08
2017-05-17T03:52:07.679Z,963.09
2017-05-17T03:53:08.298Z,963.12
2017-05-17T03:54:07.897Z,963.06
2017-05-17T03:55:07.491Z,963.05
2017-05-17T03:56:08.353Z,963.04
2017-05-17T03:57:07.960Z,963.03
2017-05-17T03:58:07.538Z,963.03
2017-05-17T03:59:08.284Z,963.03
2017-05-17T04:00:07.927Z,963.03
2017-05-17T04:01:07.485Z,963.02
2017-05-17T04:02:08.066Z,963.03
2017-05-17T04:03:07.547Z,963.01
2017-05-17T04:04:08.254Z,962.99
2017-05-17T04:05:07.852Z,962.99
2017-05-17T04:06:07.464Z,962.95
2017-05-17T04:07:07.877Z,962.94
2017-05-17T04:08:07.943Z,962.99
2017-05-17T04:09:07.468Z,962.96
2017-05-17T04:10:08.103Z,962.98
2017-05-17T04:11:07.621Z,962.96
2017-05-17T04:12:08.240Z,962.93
2017-05-17T04:13:07.823Z,962.97
2017-05-17T04:14:07.634Z,962.93
2017-05-17T04:15:08.269Z,962.94
2017-05-17T04:16:07.836Z,962.93
2017-05-17T04:17:07.407Z,962.95
2017-05-17T04:18:08.259Z,962.92
2017-05-17T04:19:07.845Z,962.93
2017-05-17T04:20:07.435Z,962.93
2017-05-17T04:21:08.066Z,962.92
2017-05-17T04:22:07.652Z,962.95
2017-05-17T04:23:08.339Z,962.91
2017-05-17T04:24:07.925Z,962.93
2017-05-17T04:25:10.238Z,962.89
2017-05-17T04:26:08.351Z,962.90
2017-05-17T04:27:07.918Z,962.93
2017-05-17T04:28:07.992Z,962.91
2017-05-17T04:29:07.634Z,962.91
2017-05-17T04:30:08.498Z,962.92
2017-05-17T04:31:08.149Z,962.90
2017-05-17T04:32:07.754Z,962.87
2017-05-17T04:33:07.358Z,962.84
2017-05-17T04:34:07.935Z,962.87
2017-05-17T04:35:07.562Z,962.83
2017-05-17T04:36:08.183Z,962.87
2017-05-17T04:37:07.815Z,962.80
2017-05-17T04:38:07.410Z,962.80
2017-05-17T04:39:08.042Z,962.81
2017-05-17T04:40:07.574Z,962.80
2017-05-17T04:41:08.502Z,962.81
2017-05-17T04:42:08.086Z,962.81
2017-05-17T04:43:07.736Z,962.81
2017-05-17T04:44:07.413Z,962.82
2017-05-17T04:45:07.984Z,962.82
2017-05-17T04:46:07.609Z,962.84
2017-05-17T04:47:08.225Z,962.83
2017-05-17T04:48:07.831Z,962.81
2017-05-17T04:49:07.342Z,962.80
2017-05-17T04:50:07.914Z,962.77
2017-05-17T04:51:07.465Z,962.80
2017-05-17T04:52:08.058Z,962.79
2017-05-17T04:53:07.868Z,962.80
2017-05-17T04:54:07.452Z,962.78
2017-05-17T04:55:08.244Z,962.82
2017-05-17T04:56:07.806Z,962.79
2017-05-17T04:57:07.309Z,962.80
2017-05-17T04:58:07.837Z,962.82
2017-05-17T04:59:07.558Z,962.78
2017-05-17T05:00:08.246Z,962.81
2017-05-17T05:01:07.856Z,962.79
2017-05-17T05:02:07.429Z,962.80
2017-05-17T05:03:07.938Z,962.81
2017-05-17T05:04:07.551Z,962.76
2017-05-17T05:05:08.143Z,962.77
2017-05-17T05:06:07.742Z,962.74
2017-05-17T05:07:07.838Z,962.75
2017-05-17T05:08:07.456Z,962.77
2017-05-17T05:09:08.102Z,962.78
2017-05-17T05:10:07.774Z,962.75
2017-05-17T05:11:07.301Z,962.73
2017-05-17T05:12:07.927Z,962.74
2017-05-17T05:13:07.779Z,962.78
2017-05-17T05:14:07.710Z,962.75
2017-05-17T05:15:08.296Z,962.71
2017-05-17T05:16:07.962Z,962.71
2017-05-17T05:17:08.027Z,962.73
2017-05-17T05:18:07.696Z,962.72
2017-05-17T05:19:08.282Z,962.73
2017-05-17T05:20:07.836Z,962.76
2017-05-17T05:21:07.412Z,962.73
2017-05-17T05:22:08.050Z,962.73
2017-05-17T05:23:07.568Z,962.71
2017-05-17T05:24:08.118Z,962.75
2017-05-17T05:25:07.780Z,962.76
2017-05-17T05:26:07.269Z,962.68
2017-05-17T05:27:07.913Z,962.67
2017-05-17T05:28:07.420Z,962.67
2017-05-17T05:29:08.096Z,962.66
2017-05-17T05:30:07.577Z,962.65
2017-05-17T05:31:08.216Z,962.64
2017-05-17T05:32:07.874Z,962.65
2017-05-17T05:33:07.436Z,962.61
2017-05-17T05:34:07.916Z,962.61
2017-05-17T05:35:07.433Z,962.63
2017-05-17T05:36:07.987Z,962.62
2017-05-17T05:37:07.586Z,962.63
2017-05-17T05:38:08.143Z,962.64
2017-05-17T05:39:07.735Z,962.65
2017-05-17T05:40:08.282Z,962.64
2017-05-17T05:41:07.706Z,962.63
2017-05-17T05:42:08.379Z,962.64
2017-05-17T05:43:07.955Z,962.65
2017-05-17T05:44:07.561Z,962.62
2017-05-17T05:45:08.144Z,962.63
2017-05-17T05:46:07.715Z,962.60
2017-05-17T05:47:08.376Z,962.54
2017-05-17T05:48:07.882Z,962.58
2017-05-17T05:49:07.576Z,962.62
2017-05-17T05:50:08.167Z,962.59
2017-05-17T05:51:07.786Z,962.60
2017-05-17T05:52:07.305Z,962.60
2017-05-17T05:53:07.947Z,962.59
2017-05-17T05:54:07.498Z,962.57
2017-05-17T05:55:08.148Z,962.56
2017-05-17T05:56:07.938Z,962.59
2017-05-17T05:57:07.484Z,962.59
2017-05-17T05:58:08.135Z,962.59
2017-05-17T05:59:07.765Z,962.56
2017-05-17T06:00:07.360Z,962.54
2017-05-17T06:01:07.916Z,962.58
2017-05-17T06:02:07.723Z,962.48
2017-05-17T06:03:08.300Z,962.49
2017-05-17T06:04:07.934Z,962.45
2017-05-17T06:05:07.451Z,962.44
2017-05-17T06:06:08.025Z,962.45
2017-05-17T06:07:07.516Z,962.44
2017-05-17T06:08:07.678Z,962.46
2017-05-17T06:09:08.306Z,962.43
2017-05-17T06:10:07.899Z,962.45
2017-05-17T06:11:07.576Z,962.37
2017-05-17T06:12:08.145Z,962.37
2017-05-17T06:13:07.679Z,962.41
2017-05-17T06:14:08.369Z,962.34
2017-05-17T06:15:07.948Z,962.37
2017-05-17T06:16:07.525Z,962.38
2017-05-17T06:17:08.155Z,962.36
2017-05-17T06:18:07.763Z,962.39
2017-05-17T06:19:07.302Z,962.37
2017-05-17T06:20:07.940Z,962.40
2017-05-17T06:21:07.554Z,962.34
2017-05-17T06:22:08.130Z,962.38
2017-05-17T06:23:08.037Z,962.33
2017-05-17T06:24:07.704Z,962.35
2017-05-17T06:25:08.429Z,962.34
2017-05-17T06:26:08.046Z,962.32
2017-05-17T06:27:07.701Z,962.31
2017-05-17T06:28:08.282Z,962.33
2017-05-17T06:29:07.838Z,962.31
2017-05-17T06:30:07.450Z,962.29
2017-05-17T06:31:08.386Z,962.29
2017-05-17T06:32:07.995Z,962.28
2017-05-17T06:33:07.531Z,962.31
2017-05-17T06:34:08.089Z,962.29
2017-05-17T06:35:07.590Z,962.29
2017-05-17T06:36:08.151Z,962.27
2017-05-17T06:37:37.938Z,962.27
2017-05-17T06:38:07.901Z,962.28
2017-05-17T06:39:07.546Z,962.36
2017-05-17T06:40:08.132Z,962.28
2017-05-17T06:41:07.728Z,962.28
2017-05-17T06:42:08.383Z,962.27
2017-05-17T06:43:07.975Z,962.22
2017-05-17T06:44:07.527Z,962.24
2017-05-17T06:45:08.107Z,962.18
2017-05-17T06:46:07.713Z,962.15
2017-05-17T06:47:08.522Z,962.20
2017-05-17T06:48:08.142Z,962.21
2017-05-17T06:49:07.712Z,962.18
2017-05-17T06:50:08.430Z,962.19
2017-05-17T06:51:08.025Z,962.22
2017-05-17T06:52:07.835Z,962.19
2017-05-17T06:53:07.376Z,962.16
2017-05-17T06:54:07.931Z,962.17
2017-05-17T06:55:07.569Z,962.14
2017-05-17T06:56:08.147Z,962.16
2017-05-17T06:57:07.659Z,962.17
2017-05-17T06:58:08.217Z,962.16
2017-05-17T06:59:07.958Z,962.21
2017-05-17T07:00:07.489Z,962.13
2017-05-17T07:01:08.041Z,962.16
2017-05-17T07:02:07.572Z,962.14
2017-05-17T07:03:08.180Z,962.14
2017-05-17T07:04:08.073Z,962.12
2017-05-17T07:05:07.911Z,962.13
2017-05-17T07:06:07.702Z,962.13
2017-05-17T07:07:08.353Z,962.09
2017-05-17T07:08:07.887Z,962.09
2017-05-17T07:09:07.618Z,962.08
2017-05-17T07:10:08.219Z,962.07
2017-05-17T07:11:07.884Z,962.02
2017-05-17T07:12:07.542Z,962.03
2017-05-17T07:13:08.108Z,962.04
2017-05-17T07:14:07.732Z,962.03
2017-05-17T07:15:08.247Z,962.01
2017-05-17T07:16:07.904Z,961.97
2017-05-17T07:17:07.609Z,962.01
2017-05-17T07:18:08.246Z,962.02
2017-05-17T07:19:07.874Z,961.98
2017-05-17T07:20:07.443Z,961.99
2017-05-17T07:21:08.290Z,962.04
2017-05-17T07:22:07.820Z,961.99
2017-05-17T07:23:07.341Z,962.00
2017-05-17T07:24:08.035Z,961.98
2017-05-17T07:25:07.722Z,962.01
2017-05-17T07:26:08.348Z,961.96
2017-05-17T07:27:08.136Z,961.95
2017-05-17T07:28:07.745Z,961.97
2017-05-17T07:29:08.349Z,961.94
2017-05-17T07:30:07.930Z,961.95
2017-05-17T07:31:07.530Z,961.91
2017-05-17T07:32:08.097Z,961.91
2017-05-17T07:33:07.711Z,961.90
2017-05-17T07:34:08.375Z,961.91
2017-05-17T07:35:07.957Z,961.89
2017-05-17T07:36:07.547Z,961.88
2017-05-17T07:37:08.137Z,961.85
2017-05-17T07:38:07.732Z,961.86
2017-05-17T07:39:08.439Z,961.84
2017-05-17T07:40:08.033Z,961.84
2017-05-17T07:41:07.833Z,961.80
2017-05-17T07:42:07.357Z,961.81
2017-05-17T07:43:07.978Z,961.78
2017-05-17T07:44:07.621Z,961.77
2017-05-17T07:45:08.179Z,961.78
2017-05-17T07:46:07.693Z,961.81
2017-05-17T07:47:08.330Z,961.76
2017-05-17T07:48:07.998Z,961.78
2017-05-17T07:49:07.555Z,961.82
2017-05-17T07:50:08.257Z,961.77
2017-05-17T07:51:07.782Z,961.77
2017-05-17T07:52:07.409Z,961.80
2017-05-17T07:53:08.035Z,961.78
2017-05-17T07:54:07.608Z,961.77
2017-05-17T07:55:08.374Z,961.78
2017-05-17T07:56:08.348Z,961.77
2017-05-17T07:57:07.928Z,961.76
2017-05-17T07:58:07.507Z,961.73
2017-05-17T07:59:08.062Z,961.73
2017-05-17T08:00:07.601Z,961.73
2017-05-17T08:01:08.181Z,961.66
2017-05-17T08:02:07.746Z,961.69
2017-05-17T08:03:08.268Z,961.66
2017-05-17T08:04:07.890Z,961.76
2017-05-17T08:05:07.397Z,961.71
2017-05-17T08:06:08.127Z,961.66
2017-05-17T08:07:07.637Z,961.66
2017-05-17T08:08:08.209Z,961.67
2017-05-17T08:09:07.993Z,961.65
2017-05-17T08:10:07.955Z,961.65
2017-05-17T08:11:07.639Z,961.67
2017-05-17T08:12:08.289Z,961.66
2017-05-17T08:13:07.799Z,961.64
2017-05-17T08:14:07.583Z,961.58
2017-05-17T08:15:08.114Z,961.59
2017-05-17T08:16:07.603Z,961.59
2017-05-17T08:17:08.374Z,961.57
2017-05-17T08:18:07.967Z,961.60
2017-05-17T08:19:07.526Z,961.57
2017-05-17T08:20:08.107Z,961.58
2017-05-17T08:21:07.632Z,961.58
2017-05-17T08:22:08.146Z,961.57
2017-05-17T08:23:07.719Z,961.57
2017-05-17T08:24:08.294Z,961.51
2017-05-17T08:25:07.995Z,961.54
2017-05-17T08:26:07.700Z,961.50
2017-05-17T08:27:08.270Z,961.48
2017-05-17T08:28:07.821Z,961.45
2017-05-17T08:29:07.307Z,961.45
2017-05-17T08:30:08.084Z,961.49
2017-05-17T08:31:07.703Z,961.44
2017-05-17T08:32:08.325Z,961.42
2017-05-17T08:33:07.903Z,961.42
2017-05-17T08:34:07.525Z,961.44
2017-05-17T08:35:08.069Z,961.47
2017-05-17T08:36:08.181Z,961.42
2017-05-17T08:37:07.993Z,961.43
2017-05-17T08:38:07.729Z,961.38
2017-05-17T08:39:07.503Z,961.37
2017-05-17T08:40:08.148Z,961.38
2017-05-17T08:41:07.829Z,961.37
2017-05-17T08:42:07.413Z,961.38
2017-05-17T08:43:08.005Z,961.35
2017-05-17T08:44:07.513Z,961.37
2017-05-17T08:45:08.090Z,961.34
2017-05-17T08:46:07.711Z,961.36
2017-05-17T08:47:08.275Z,961.35
2017-05-17T08:48:07.770Z,961.34
2017-05-17T08:49:07.385Z,961.34
2017-05-17T08:50:07.938Z,961.34
2017-05-17T08:51:07.707Z,961.34
2017-05-17T08:52:07.409Z,961.31
2017-05-17T08:53:08.234Z,961.31
2017-05-17T08:54:07.836Z,961.26
2017-05-17T08:55:07.465Z,961.30
2017-05-17T08:56:08.196Z,961.26
2017-05-17T08:57:07.780Z,961.22
2017-05-17T08:58:07.340Z,961.25
2017-05-17T08:59:08.091Z,961.25
2017-05-17T09:00:07.714Z,961.28
2017-05-17T09:01:08.294Z,961.26
2017-05-17T09:02:08.158Z,961.26
2017-05-17T09:03:07.737Z,961.25
2017-05-17T09:04:08.361Z,961.27
2017-05-17T09:05:08.231Z,961.22
2017-05-17T09:06:08.057Z,961.24
2017-05-17T09:07:07.754Z,961.17
2017-05-17T09:08:07.368Z,961.20
2017-05-17T09:09:07.899Z,961.24
2017-05-17T09:10:07.447Z,961.11
2017-05-17T09:11:07.999Z,961.15
2017-05-17T09:12:07.865Z,961.18
2017-05-17T09:13:07.651Z,961.13
2017-05-17T09:14:08.268Z,961.14
2017-05-17T09:15:07.838Z,961.13
2017-05-17T09:16:07.439Z,961.03
2017-05-17T09:17:08.141Z,961.16
2017-05-17T09:18:07.646Z,961.02
2017-05-17T09:19:08.220Z,961.03
2017-05-17T09:20:07.839Z,961.06
2017-05-17T09:21:07.471Z,961.01
2017-05-17T09:22:08.073Z,961.00
2017-05-17T09:23:07.570Z,960.97
2017-05-17T09:24:08.152Z,960.95
2017-05-17T09:25:07.781Z,960.94
2017-05-17T09:26:07.378Z,960.96
2017-05-17T09:27:08.223Z,960.94
2017-05-17T09:28:07.797Z,960.89
2017-05-17T09:29:07.310Z,960.94
2017-05-17T09:30:08.121Z,960.93
2017-05-17T09:31:07.730Z,960.84
2017-05-17T09:32:08.364Z,960.79
2017-05-17T09:33:07.875Z,960.84
2017-05-17T09:34:07.452Z,960.82
2017-05-17T09:35:08.049Z,960.82
2017-05-17T09:36:07.625Z,960.84
2017-05-17T09:37:08.178Z,960.74
2017-05-17T09:38:07.769Z,960.74
2017-05-17T09:39:07.375Z,960.78
2017-05-17T09:40:07.979Z,960.74
2017-05-17T09:41:07.589Z,960.79
2017-05-17T09:42:08.088Z,960.76
2017-05-17T09:43:07.665Z,960.74
2017-05-17T09:44:08.336Z,960.74
2017-05-17T09:45:07.913Z,960.75
2017-05-17T09:46:07.450Z,960.77
2017-05-17T09:47:07.965Z,960.69
2017-05-17T09:48:07.767Z,960.72
2017-05-17T09:49:07.513Z,960.68
2017-05-17T09:50:08.186Z,960.75
2017-05-17T09:51:07.658Z,960.65
2017-05-17T09:52:08.166Z,960.61
2017-05-17T09:53:07.852Z,960.61
2017-05-17T09:54:07.346Z,960.54
2017-05-17T09:55:08.055Z,960.62
2017-05-17T09:56:08.060Z,960.62
2017-05-17T09:57:07.594Z,960.64
2017-05-17T09:58:08.933Z,960.58
2017-05-17T09:59:07.591Z,960.57
2017-05-17T10:00:08.221Z,960.55
2017-05-17T10:01:07.678Z,960.56
2017-05-17T10:02:08.018Z,960.52
2017-05-17T10:03:07.796Z,960.56
2017-05-17T10:04:07.386Z,960.54
2017-05-17T10:05:07.903Z,960.45
2017-05-17T10:06:07.377Z,960.50
2017-05-17T10:07:08.128Z,960.46
2017-05-17T10:08:07.632Z,960.41
2017-05-17T10:09:08.295Z,960.48
2017-05-17T10:10:07.909Z,960.45
2017-05-17T10:11:07.486Z,960.43
2017-05-17T10:12:08.068Z,960.48
2017-05-17T10:13:07.580Z,960.45
2017-05-17T10:14:08.159Z,960.40
2017-05-17T10:15:07.767Z,960.36
2017-05-17T10:16:07.350Z,960.38
2017-05-17T10:17:08.164Z,960.42
2017-05-17T10:18:07.751Z,960.39
2017-05-17T10:19:08.398Z,960.33
2017-05-17T10:20:08.058Z,960.30
2017-05-17T10:21:07.584Z,960.29
2017-05-17T10:22:08.205Z,960.29
2017-05-17T10:23:07.986Z,960.29
2017-05-17T10:24:07.536Z,960.25
2017-05-17T10:25:08.299Z,960.28
2017-05-17T10:26:07.994Z,960.28
2017-05-17T10:27:07.528Z,960.23
2017-05-17T10:28:08.125Z,960.20
2017-05-17T10:29:07.686Z,960.22
2017-05-17T10:30:08.369Z,960.21
2017-05-17T10:31:07.944Z,960.17
2017-05-17T10:32:07.567Z,960.14
2017-05-17T10:33:08.113Z,960.11
2017-05-17T10:34:07.691Z,960.11
2017-05-17T10:35:08.243Z,960.14
2017-05-17T10:36:07.813Z,960.13
2017-05-17T10:37:07.594Z,960.10
2017-05-17T10:38:08.286Z,960.12
2017-05-17T10:39:07.883Z,960.03
2017-05-17T10:40:07.465Z,960.05
2017-05-17T10:41:08.143Z,960.04
2017-05-17T10:42:08.798Z,960.08
2017-05-17T10:43:07.403Z,960.03
2017-05-17T10:44:08.068Z,960.01
2017-05-17T10:45:07.652Z,960.01
2017-05-17T10:46:08.290Z,959.97
2017-05-17T10:47:07.836Z,959.99
2017-05-17T10:48:07.342Z,960.03
2017-05-17T10:49:08.027Z,959.94
2017-05-17T10:50:07.667Z,959.92
2017-05-17T10:51:08.299Z,959.91
2017-05-17T10:52:07.795Z,959.87
2017-05-17T10:53:07.250Z,959.89
2017-05-17T10:54:07.845Z,959.93
2017-05-17T10:55:07.539Z,959.91
2017-05-17T10:56:08.206Z,959.89
2017-05-17T10:57:07.804Z,959.89
2017-05-17T10:58:07.314Z,959.85
2017-05-17T10:59:08.198Z,959.88
2017-05-17T11:00:07.958Z,959.84
2017-05-17T11:01:07.543Z,959.82
2017-05-17T11:02:08.194Z,959.81
2017-05-17T11:03:07.779Z,959.79
2017-05-17T11:04:07.353Z,959.78
2017-05-17T11:05:07.997Z,959.71
2017-05-17T11:06:07.807Z,959.67
2017-05-17T11:07:07.267Z,959.70
2017-05-17T11:08:07.849Z,959.71
2017-05-17T11:09:07.425Z,959.70
2017-05-17T11:10:08.029Z,959.68
2017-05-17T11:11:07.605Z,959.65
2017-05-17T11:12:08.181Z,959.75
2017-05-17T11:13:07.844Z,959.70
2017-05-17T11:14:07.498Z,959.67
2017-05-17T11:15:08.074Z,959.67
2017-05-17T11:16:07.708Z,959.60
2017-05-17T11:17:08.602Z,959.61
2017-05-17T11:18:08.249Z,959.63
2017-05-17T11:19:07.871Z,959.61
2017-05-17T11:20:07.538Z,959.63
2017-05-17T11:21:08.368Z,959.63
2017-05-17T11:22:07.863Z,959.58
2017-05-17T11:23:07.427Z,959.64
2017-05-17T11:24:08.035Z,959.57
2017-05-17T11:25:07.831Z,959.55
2017-05-17T11:26:07.485Z,959.56
2017-05-17T11:27:08.102Z,959.60
2017-05-17T11:28:07.921Z,959.57
2017-05-17T11:29:07.357Z,959.51
2017-05-17T11:30:07.855Z,959.45
2017-05-17T11:31:07.396Z,959.43
2017-05-17T11:32:07.960Z,959.40
2017-05-17T11:33:07.553Z,959.40
2017-05-17T11:34:08.102Z,959.44
2017-05-17T11:35:07.705Z,959.40
2017-05-17T11:36:08.337Z,959.43
2017-05-17T11:37:07.822Z,959.38
2017-05-17T11:38:07.378Z,959.34
2017-05-17T11:39:07.890Z,959.33
2017-05-17T11:40:07.431Z,959.33
2017-05-17T11:41:08.052Z,959.24
2017-05-17T11:42:07.625Z,959.29
2017-05-17T11:43:08.275Z,959.24
2017-05-17T11:44:07.859Z,959.25
2017-05-17T11:45:07.468Z,959.23
2017-05-17T11:46:08.073Z,959.25
2017-05-17T11:47:07.616Z,959.18
2017-05-17T11:48:08.443Z,959.17
2017-05-17T11:49:08.993Z,959.23
2017-05-17T11:50:07.518Z,959.27
2017-05-17T11:51:08.235Z,959.20
2017-05-17T11:52:20.970Z,959.17
2017-05-17T11:53:07.868Z,959.15
2017-05-17T11:54:07.736Z,959.14
2017-05-17T11:55:08.389Z,959.16
2017-05-17T11:56:08.047Z,959.21
2017-05-17T11:57:07.743Z,959.24
2017-05-17T11:58:07.624Z,959.20
2017-05-17T11:59:08.196Z,959.19
2017-05-17T12:00:07.869Z,959.19
2017-05-17T12:01:07.438Z,959.17
2017-05-17T12:02:08.145Z,959.12
2017-05-17T12:03:07.753Z,959.12
2017-05-17T12:04:08.427Z,959.16
2017-05-17T12:05:07.945Z,959.02
2017-05-17T12:06:07.423Z,959.05
2017-05-17T12:07:08.086Z,959.12
2017-05-17T12:08:07.662Z,959.07
2017-05-17T12:09:08.247Z,959.10
2017-05-17T12:10:07.972Z,959.03
2017-05-17T12:11:07.554Z,958.98
2017-05-17T12:12:08.255Z,958.99
2017-05-17T12:13:07.828Z,958.98
2017-05-17T12:14:07.602Z,959.07
2017-05-17T12:15:08.205Z,959.04
2017-05-17T12:16:07.846Z,959.04
2017-05-17T12:17:07.507Z,958.99
2017-05-17T12:18:08.108Z,959.01
2017-05-17T12:19:07.693Z,959.00
2017-05-17T12:20:08.322Z,959.00
2017-05-17T12:21:07.916Z,958.93
2017-05-17T12:22:07.405Z,958.89
2017-05-17T12:23:07.977Z,958.92
2017-05-17T12:24:07.567Z,958.91
2017-05-17T12:25:08.185Z,958.89
2017-05-17T12:26:07.781Z,958.87
2017-05-17T12:27:07.344Z,958.85
2017-05-17T12:28:07.957Z,958.84